Elbella — 9HA2358 — position and weather

sailwx.info

Track history (hours):
 
Tides and Currents Weather Stations Pressure Air Temp Water Temp Dewpoint Dewpoint Depression Visibility Wind Speed Wind Dir Waves Ship Positions

Elbella

Last reported at 2016-Jun-30 15:24 UTC. Time now 2016-Jul-01 19:02 UTC.
Position N 36°22' E 034°19'.

Length 176 m; draft 7.5 m.

Type: Ship (hazmat cat A). MMSI: 248422000.

Date/timePositionNaut miles runAvg speedWind from/ knotsBaromVisibWave heightAir tempDewpointWater temp
2016-Jun-30 15:24N 36°22' E 034°19'107 4.6
2016-Jun-29 16:15N 34°42' E 035°04'1014.2
2016-Jun-29 15:34N 34°32' E 035°06'1514.8
2016-Jun-29 14:34N 34°17' E 035°08'1715.5
2016-Jun-29 13:28N 34°00' E 035°11'64 1.4
2016-Jun-27 15:33N 34°55' E 035°52'1 0.6
2016-Jun-27 13:33N 34°54' E 035°51'3 2.1
2016-Jun-27 12:20N 34°55' E 035°48'1317.0
2016-Jun-27 11:33N 34°56' E 035°31'7 2.8
2016-Jun-27 09:08N 34°57' E 035°23'1 1.1
2016-Jun-27 08:33N 34°56' E 035°23'3 0.6
2016-Jun-27 02:33N 34°54' E 035°19'1 0.6
2016-Jun-27 01:34N 34°54' E 035°18'1 0.8
2016-Jun-27 00:33N 34°54' E 035°17'4 3.3
2016-Jun-26 23:19N 34°51' E 035°14'4 5.0
2016-Jun-26 22:33N 34°47' E 035°16'8 7.7
2016-Jun-26 21:33N 34°43' E 035°08'7 6.9
2016-Jun-26 20:33N 34°39' E 035°01'4 4.3
2016-Jun-26 19:33N 34°36' E 035°04'1 1.4
2016-Jun-26 18:34N 34°35' E 035°04'7 3.3
2016-Jun-26 16:34N 34°28' E 035°05'1512.0
2016-Jun-26 15:17N 34°18' E 035°18'4 5.3
2016-Jun-26 14:33N 34°15' E 035°15'6 6.4
2016-Jun-26 13:33N 34°10' E 035°10'16 4.0
2016-Jun-26 09:33N 33°56' E 035°20'11 2.0
2016-Jun-26 04:16N 33°55' E 035°32'1 1.0
2016-Jun-26 03:22N 33°55' E 035°32'2 2.0
2016-Jun-26 02:34N 33°57' E 035°31'0 0.2
2016-Jun-26 01:34N 33°56' E 035°31'7 6.6
2016-Jun-26 00:34N 33°56' E 035°23'7 6.9
2016-Jun-25 23:34N 33°56' E 035°15'7 6.6
2016-Jun-25 22:34N 33°56' E 035°07'7 7.4
2016-Jun-25 21:33N 33°58' E 034°59'1111.5
2016-Jun-25 20:33N 34°05' E 034°48'1110.6
2016-Jun-25 19:33N 34°11' E 034°37'1111.3
2016-Jun-25 18:33N 34°16' E 034°25'1413.8
2016-Jun-25 17:33N 34°17' E 034°08'1111.2
2016-Jun-25 16:33N 34°21' E 033°56'1515.1
2016-Jun-25 15:34N 34°27' E 033°39'1615.3
2016-Jun-25 14:32N 34°33' E 033°21'1615.8
2016-Jun-25 13:33N 34°39' E 033°03'2 1.7
2016-Jun-25 12:15N 34°39' E 033°01'0 0.0
2016-Jun-25 11:33N 34°39' E 033°01'0 0.0
2016-Jun-25 10:33N 34°39' E 033°01'0 0.0
2016-Jun-25 09:33N 34°39' E 033°01'0 0.0
2016-Jun-25 08:33N 34°39' E 033°01'0 0.0
2016-Jun-25 07:33N 34°39' E 033°01'0 0.0
2016-Jun-25 06:18N 34°39' E 033°01'0 0.0
2016-Jun-25 05:33N 34°39' E 033°01'7 6.8
2016-Jun-25 04:33N 34°36' E 033°08'1514.9
2016-Jun-25 03:33N 34°21' E 033°08'1717.1
2016-Jun-25 02:33N 34°04' E 033°05'1716.7
2016-Jun-25 01:33N 33°47' E 033°03'1716.7
2016-Jun-25 00:33N 33°31' E 033°01'1716.7
2016-Jun-24 23:33N 33°14' E 032°59'1717.1
2016-Jun-24 22:33N 32°57' E 032°57'1817.6
2016-Jun-24 21:33N 32°40' E 032°55'1817.5
2016-Jun-24 20:34N 32°22' E 032°53'1817.5
2016-Jun-24 19:33N 32°05' E 032°51'1916.4
2016-Jun-24 18:23N 31°46' E 032°46'1517.4
2016-Jun-24 17:33N 31°39' E 032°31'1515.0
2016-Jun-24 16:33N 31°25' E 032°25'2 0.1
2016-Jun-23 21:33N 31°24' E 032°27'1 0.7
2016-Jun-23 19:31N 31°24' E 032°29'0 0.0
2016-Jun-23 18:31N 31°24' E 032°29'0 0.0
2016-Jun-23 17:19N 31°24' E 032°29'0 0.0
2016-Jun-23 16:19N 31°24' E 032°29'0 0.0
2016-Jun-23 13:25N 31°24' E 032°29'0 0.0
2016-Jun-23 12:31N 31°24' E 032°29'0 0.0
2016-Jun-23 11:28N 31°24' E 032°29'0 0.0
2016-Jun-23 10:31N 31°24' E 032°29'0 0.0
2016-Jun-23 07:13N 31°24' E 032°29'0 0.0
2016-Jun-22 22:07N 31°24' E 032°29'0 0.0
2016-Jun-22 21:07N 31°24' E 032°29'0 0.0
2016-Jun-22 19:31N 31°24' E 032°29'0 0.0
2016-Jun-22 18:31N 31°24' E 032°29'0 0.0
2016-Jun-22 16:13N 31°24' E 032°29'0 0.0
2016-Jun-22 15:31N 31°24' E 032°29'0 0.0
2016-Jun-22 13:33N 31°24' E 032°29'0 0.0
2016-Jun-22 12:29N 31°24' E 032°29'0 0.0
2016-Jun-22 11:32N 31°24' E 032°29'0 0.0
2016-Jun-22 10:32N 31°24' E 032°29'0 0.0
2016-Jun-22 09:32N 31°24' E 032°29'0 0.0
2016-Jun-22 07:32N 31°24' E 032°29'0 0.0
2016-Jun-22 06:29N 31°24' E 032°29'0 0.0
2016-Jun-22 05:32N 31°24' E 032°29'0 0.0
2016-Jun-22 04:32N 31°24' E 032°29'0 0.0
2016-Jun-21 22:32N 31°24' E 032°29'0 0.0
2016-Jun-21 21:23N 31°24' E 032°29'0 0.0
2016-Jun-21 20:17N 31°24' E 032°29'0 0.0
2016-Jun-21 16:09N 31°24' E 032°29'0 0.0
2016-Jun-21 15:30N 31°24' E 032°29'0 0.0
2016-Jun-21 14:33N 31°24' E 032°29'0 0.0
2016-Jun-21 13:33N 31°24' E 032°29'0 0.0
2016-Jun-21 12:33N 31°24' E 032°29'0 0.0
2016-Jun-21 11:24N 31°24' E 032°29'0 0.0
2016-Jun-21 09:29N 31°24' E 032°29'0 0.0
2016-Jun-21 08:32N 31°24' E 032°29'0 0.0
2016-Jun-21 07:32N 31°24' E 032°29'0 0.0
2016-Jun-21 01:14N 31°24' E 032°29'0 0.0
2016-Jun-21 00:29N 31°24' E 032°29'0 0.0
2016-Jun-20 23:29N 31°24' E 032°29'0 0.0
2016-Jun-20 16:20N 31°24' E 032°29'  
Track history (hours):
 
Tides and Currents Weather Stations Pressure Air Temp Water Temp Dewpoint Dewpoint Depression Visibility Wind Speed Wind Dir Waves Ship Positions

Elbella

Last reported at 2016-Jun-30 15:24 UTC. Time now 2016-Jul-01 19:02 UTC.
Position N 36°22' E 034°19'.

Length 176 m; draft 7.5 m.

Type: Ship (hazmat cat A). MMSI: 248422000.

Date/timePositionNaut miles runAvg speedWind from/ knotsBaromVisibWave heightAir tempDewpointWater temp
2016-Jun-30 15:24N 36°22' E 034°19'107 4.6
2016-Jun-29 16:15N 34°42' E 035°04'1014.2
2016-Jun-29 15:34N 34°32' E 035°06'1514.8
2016-Jun-29 14:34N 34°17' E 035°08'1715.5
2016-Jun-29 13:28N 34°00' E 035°11'64 1.4
2016-Jun-27 15:33N 34°55' E 035°52'1 0.6
2016-Jun-27 13:33N 34°54' E 035°51'3 2.1
2016-Jun-27 12:20N 34°55' E 035°48'1317.0
2016-Jun-27 11:33N 34°56' E 035°31'7 2.8
2016-Jun-27 09:08N 34°57' E 035°23'1 1.1
2016-Jun-27 08:33N 34°56' E 035°23'3 0.6
2016-Jun-27 02:33N 34°54' E 035°19'1 0.6
2016-Jun-27 01:34N 34°54' E 035°18'1 0.8
2016-Jun-27 00:33N 34°54' E 035°17'4 3.3
2016-Jun-26 23:19N 34°51' E 035°14'4 5.0
2016-Jun-26 22:33N 34°47' E 035°16'8 7.7
2016-Jun-26 21:33N 34°43' E 035°08'7 6.9
2016-Jun-26 20:33N 34°39' E 035°01'4 4.3
2016-Jun-26 19:33N 34°36' E 035°04'1 1.4
2016-Jun-26 18:34N 34°35' E 035°04'7 3.3
2016-Jun-26 16:34N 34°28' E 035°05'1512.0
2016-Jun-26 15:17N 34°18' E 035°18'4 5.3
2016-Jun-26 14:33N 34°15' E 035°15'6 6.4
2016-Jun-26 13:33N 34°10' E 035°10'16 4.0
2016-Jun-26 09:33N 33°56' E 035°20'11 2.0
2016-Jun-26 04:16N 33°55' E 035°32'1 1.0
2016-Jun-26 03:22N 33°55' E 035°32'2 2.0
2016-Jun-26 02:34N 33°57' E 035°31'0 0.2
2016-Jun-26 01:34N 33°56' E 035°31'7 6.6
2016-Jun-26 00:34N 33°56' E 035°23'7 6.9
2016-Jun-25 23:34N 33°56' E 035°15'7 6.6
2016-Jun-25 22:34N 33°56' E 035°07'7 7.4
2016-Jun-25 21:33N 33°58' E 034°59'1111.5
2016-Jun-25 20:33N 34°05' E 034°48'1110.6
2016-Jun-25 19:33N 34°11' E 034°37'1111.3
2016-Jun-25 18:33N 34°16' E 034°25'1413.8
2016-Jun-25 17:33N 34°17' E 034°08'1111.2
2016-Jun-25 16:33N 34°21' E 033°56'1515.1
2016-Jun-25 15:34N 34°27' E 033°39'1615.3
2016-Jun-25 14:32N 34°33' E 033°21'1615.8
2016-Jun-25 13:33N 34°39' E 033°03'2 1.7
2016-Jun-25 12:15N 34°39' E 033°01'0 0.0
2016-Jun-25 11:33N 34°39' E 033°01'0 0.0
2016-Jun-25 10:33N 34°39' E 033°01'0 0.0
2016-Jun-25 09:33N 34°39' E 033°01'0 0.0
2016-Jun-25 08:33N 34°39' E 033°01'0 0.0
2016-Jun-25 07:33N 34°39' E 033°01'0 0.0
2016-Jun-25 06:18N 34°39' E 033°01'0 0.0
2016-Jun-25 05:33N 34°39' E 033°01'7 6.8
2016-Jun-25 04:33N 34°36' E 033°08'1514.9
2016-Jun-25 03:33N 34°21' E 033°08'1717.1
2016-Jun-25 02:33N 34°04' E 033°05'1716.7
2016-Jun-25 01:33N 33°47' E 033°03'1716.7
2016-Jun-25 00:33N 33°31' E 033°01'1716.7
2016-Jun-24 23:33N 33°14' E 032°59'1717.1
2016-Jun-24 22:33N 32°57' E 032°57'1817.6
2016-Jun-24 21:33N 32°40' E 032°55'1817.5
2016-Jun-24 20:34N 32°22' E 032°53'1817.5
2016-Jun-24 19:33N 32°05' E 032°51'1916.4
2016-Jun-24 18:23N 31°46' E 032°46'1517.4
2016-Jun-24 17:33N 31°39' E 032°31'1515.0
2016-Jun-24 16:33N 31°25' E 032°25'2 0.1
2016-Jun-23 21:33N 31°24' E 032°27'1 0.7
2016-Jun-23 19:31N 31°24' E 032°29'0 0.0
2016-Jun-23 18:31N 31°24' E 032°29'0 0.0
2016-Jun-23 17:19N 31°24' E 032°29'0 0.0
2016-Jun-23 16:19N 31°24' E 032°29'0 0.0
2016-Jun-23 13:25N 31°24' E 032°29'0 0.0
2016-Jun-23 12:31N 31°24' E 032°29'0 0.0
2016-Jun-23 11:28N 31°24' E 032°29'0 0.0
2016-Jun-23 10:31N 31°24' E 032°29'0 0.0
2016-Jun-23 07:13N 31°24' E 032°29'0 0.0
2016-Jun-22 22:07N 31°24' E 032°29'0 0.0
2016-Jun-22 21:07N 31°24' E 032°29'0 0.0
2016-Jun-22 19:31N 31°24' E 032°29'0 0.0
2016-Jun-22 18:31N 31°24' E 032°29'0 0.0
2016-Jun-22 16:13N 31°24' E 032°29'0 0.0
2016-Jun-22 15:31N 31°24' E 032°29'0 0.0
2016-Jun-22 13:33N 31°24' E 032°29'0 0.0
2016-Jun-22 12:29N 31°24' E 032°29'0 0.0
2016-Jun-22 11:32N 31°24' E 032°29'0 0.0
2016-Jun-22 10:32N 31°24' E 032°29'0 0.0
2016-Jun-22 09:32N 31°24' E 032°29'0 0.0
2016-Jun-22 07:32N 31°24' E 032°29'0 0.0
2016-Jun-22 06:29N 31°24' E 032°29'0 0.0
2016-Jun-22 05:32N 31°24' E 032°29'0 0.0
2016-Jun-22 04:32N 31°24' E 032°29'0 0.0
2016-Jun-21 22:32N 31°24' E 032°29'0 0.0
2016-Jun-21 21:23N 31°24' E 032°29'0 0.0
2016-Jun-21 20:17N 31°24' E 032°29'0 0.0
2016-Jun-21 16:09N 31°24' E 032°29'0 0.0
2016-Jun-21 15:30N 31°24' E 032°29'0 0.0
2016-Jun-21 14:33N 31°24' E 032°29'0 0.0
2016-Jun-21 13:33N 31°24' E 032°29'0 0.0
2016-Jun-21 12:33N 31°24' E 032°29'0 0.0
2016-Jun-21 11:24N 31°24' E 032°29'0 0.0
2016-Jun-21 09:29N 31°24' E 032°29'0 0.0
2016-Jun-21 08:32N 31°24' E 032°29'0 0.0
2016-Jun-21 07:32N 31°24' E 032°29'0 0.0
2016-Jun-21 01:14N 31°24' E 032°29'0 0.0
2016-Jun-21 00:29N 31°24' E 032°29'0 0.0
2016-Jun-20 23:29N 31°24' E 032°29'0 0.0
2016-Jun-20 16:20N 31°24' E 032°29'  

Dump ship's entire track history